Time;durP1;ratioP1;P1;durP2;ratioP2;P2;SDS_P1;SDS_P2;PMS_P1;PMS_P2;Temp;Humidity;BMP_temperature;BMP_pressure;BME280_temperature;BME280_humidity;BME280_pressure;Samples;Min_cycle;Max_cycle;Signal;HPM_P1;HPM_P2
2021/06/24 00:00:53;;;;;;;8.52;3.50;;;;;;;;;;4900298;29;20040;-45
2021/06/24 00:03:19;;;;;;;14.30;3.47;;;;;;;;;;4900200;29;20385;-43
2021/06/24 00:05:45;;;;;;;13.48;3.53;;;;;;;;;;4900150;29;20051;-43
2021/06/24 00:08:11;;;;;;;15.10;4.10;;;;;;;;;;4900184;29;20036;-43
2021/06/24 00:10:40;;;;;;;12.45;3.47;;;;;;;;;;4900141;29;20042;-43
2021/06/24 00:13:06;;;;;;;8.80;3.58;;;;;;;;;;4900166;29;20029;-44
2021/06/24 00:15:32;;;;;;;13.18;5.15;;;;;;;;;;4900075;29;20464;-43
2021/06/24 00:17:57;;;;;;;17.05;4.90;;;;;;;;;;4899858;29;20017;-44
2021/06/24 00:20:23;;;;;;;11.55;4.43;;;;;;;;;;4900086;29;20068;-43
2021/06/24 00:22:48;;;;;;;10.60;4.03;;;;;;;;;;4900175;29;20048;-44
2021/06/24 00:25:14;;;;;;;9.32;3.60;;;;;;;;;;4899631;29;20052;-44
2021/06/24 00:27:39;;;;;;;11.93;3.50;;;;;;;;;;4898695;29;20361;-43
2021/06/24 00:30:05;;;;;;;12.00;4.10;;;;;;;;;;4899715;29;20084;-44
2021/06/24 00:32:32;;;;;;;12.20;4.70;;;;;;;;;;4899741;29;20372;-44
2021/06/24 00:35:00;;;;;;;10.02;4.60;;;;;;;;;;4898418;29;20064;-43
2021/06/24 00:37:26;;;;;;;11.77;4.13;;;;;;;;;;4898322;29;20152;-44
2021/06/24 00:39:51;;;;;;;12.30;3.78;;;;;;;;;;4899654;29;20104;-44
2021/06/24 00:42:17;;;;;;;11.20;4.15;;;;;;;;;;4898231;29;20036;-44
2021/06/24 00:44:42;;;;;;;10.90;4.47;;;;;;;;;;4899584;29;20035;-44
2021/06/24 00:47:08;;;;;;;10.40;4.10;;;;;;;;;;4899441;29;20032;-44
2021/06/24 00:49:34;;;;;;;9.63;3.78;;;;;;;;;;4897421;29;20055;-44
2021/06/24 00:51:59;;;;;;;16.92;4.68;;;;;;;;;;4899316;29;20024;-43
2021/06/24 00:54:25;;;;;;;13.20;3.53;;;;;;;;;;4898115;29;20107;-44
2021/06/24 00:56:51;;;;;;;8.55;3.70;;;;;;;;;;4899482;29;20450;-44
2021/06/24 00:59:17;;;;;;;11.90;3.42;;;;;;;;;;4899515;29;20033;-44
2021/06/24 01:01:42;;;;;;;8.05;3.47;;;;;;;;;;4899186;29;20036;-43
2021/06/24 01:04:07;;;;;;;8.07;3.47;;;;;;;;;;4897950;29;20403;-44
2021/06/24 01:06:34;;;;;;;11.52;3.90;;;;;;;;;;4897934;29;20036;-44
2021/06/24 01:09:00;;;;;;;9.18;3.50;;;;;;;;;;4897794;29;20029;-44
2021/06/24 01:11:26;;;;;;;12.30;4.10;;;;;;;;;;4899131;29;20032;-43
2021/06/24 01:13:52;;;;;;;9.77;3.72;;;;;;;;;;4899042;29;20029;-44
2021/06/24 01:16:18;;;;;;;17.10;3.60;;;;;;;;;;4897616;29;20029;-44
2021/06/24 01:18:44;;;;;;;14.13;4.22;;;;;;;;;;4899285;29;20032;-44
2021/06/24 01:21:11;;;;;;;9.25;3.60;;;;;;;;;;4899073;29;20051;-44
2021/06/24 01:23:39;;;;;;;13.02;3.58;;;;;;;;;;4898793;29;20104;-44
2021/06/24 01:26:05;;;;;;;8.50;3.67;;;;;;;;;;4898627;29;20035;-44
2021/06/24 01:28:31;;;;;;;8.30;3.25;;;;;;;;;;4898831;29;20037;-44
2021/06/24 01:30:56;;;;;;;18.70;3.78;;;;;;;;;;4898567;29;20020;-44
2021/06/24 01:33:23;;;;;;;13.05;3.50;;;;;;;;;;4898747;29;20376;-43
2021/06/24 01:35:49;;;;;;;12.25;3.10;;;;;;;;;;4898739;29;20106;-43
2021/06/24 01:38:15;;;;;;;11.23;3.40;;;;;;;;;;4896976;29;20373;-44
2021/06/24 01:41:04;;;;;;;10.60;3.25;;;;;;;;;;4892168;29;20052;-44
2021/06/24 01:43:30;;;;;;;8.75;3.65;;;;;;;;;;4897171;29;20039;-44
2021/06/24 01:45:57;;;;;;;7.40;3.38;;;;;;;;;;4897184;29;20505;-45
2021/06/24 01:48:23;;;;;;;20.20;3.92;;;;;;;;;;4898421;29;20468;-45
2021/06/24 01:50:50;;;;;;;9.10;3.53;;;;;;;;;;4898546;29;20092;-44
2021/06/24 01:53:15;;;;;;;12.48;3.28;;;;;;;;;;4896975;29;20401;-43
2021/06/24 01:55:41;;;;;;;16.27;4.07;;;;;;;;;;4897034;29;20021;-44
2021/06/24 01:58:12;;;;;;;9.75;3.70;;;;;;;;;;4898349;29;20036;-44
2021/06/24 02:01:10;;;;;;;11.55;3.15;;;;;;;;;;4901115;29;20041;-43
2021/06/24 02:03:42;;;;;;;16.60;5.00;;;;;;;;;;4896835;29;20118;-44
2021/06/24 02:06:08;;;;;;;12.70;4.15;;;;;;;;;;4881238;29;20302;-44
2021/06/24 02:08:36;;;;;;;11.73;3.78;;;;;;;;;;4896861;29;20452;-44
2021/06/24 02:11:21;;;;;;;7.68;3.38;;;;;;;;;;4906137;29;20483;-44
2021/06/24 02:13:51;;;;;;;10.13;3.67;;;;;;;;;;4896677;29;20028;-44
2021/06/24 02:16:17;;;;;;;6.95;3.65;;;;;;;;;;4896629;29;20055;-43
2021/06/24 02:18:43;;;;;;;13.43;3.67;;;;;;;;;;4896669;29;20387;-44
2021/06/24 02:21:14;;;;;;;15.18;3.72;;;;;;;;;;4896465;29;20100;-44
2021/06/24 02:24:00;;;;;;;13.32;4.13;;;;;;;;;;4896442;29;20080;-44
2021/06/24 02:26:34;;;;;;;9.63;3.15;;;;;;;;;;4896425;29;20055;-44
2021/06/24 02:29:10;;;;;;;13.93;3.22;;;;;;;;;;4896456;29;20400;-44
2021/06/24 02:31:37;;;;;;;9.23;3.55;;;;;;;;;;4896457;29;20040;-44
2021/06/24 02:34:09;;;;;;;12.13;3.50;;;;;;;;;;4896137;29;20464;-44
2021/06/24 02:36:58;;;;;;;21.95;3.92;;;;;;;;;;4897598;29;20388;-44
2021/06/24 02:39:43;;;;;;;8.93;4.15;;;;;;;;;;4897403;29;20048;-44
2021/06/24 02:42:09;;;;;;;9.98;3.47;;;;;;;;;;4896080;29;20515;-44
2021/06/24 02:44:36;;;;;;;15.65;3.35;;;;;;;;;;4897691;29;20112;-44
2021/06/24 02:47:02;;;;;;;9.05;3.17;;;;;;;;;;4897647;29;20446;-44
2021/06/24 02:49:27;;;;;;;8.65;3.42;;;;;;;;;;4896097;29;20080;-44
2021/06/24 02:51:58;;;;;;;7.30;3.20;;;;;;;;;;4897405;29;20033;-44
2021/06/24 02:54:25;;;;;;;15.68;4.72;;;;;;;;;;4896154;29;20052;-43
2021/06/24 02:56:57;;;;;;;5.72;3.60;;;;;;;;;;4897633;29;20434;-44
2021/06/24 02:59:42;;;;;;;12.32;3.38;;;;;;;;;;4897267;29;20136;-44
2021/06/24 03:02:08;;;;;;;17.92;3.75;;;;;;;;;;4895826;29;20115;-44
2021/06/24 03:04:36;;;;;;;12.20;3.53;;;;;;;;;;4895991;29;20025;-44
2021/06/24 03:07:02;;;;;;;14.85;4.07;;;;;;;;;;4895942;29;20040;-44
2021/06/24 03:09:32;;;;;;;13.18;3.70;;;;;;;;;;4897210;29;20029;-44
2021/06/24 03:11:58;;;;;;;18.65;3.40;;;;;;;;;;4899152;29;20036;-44
2021/06/24 03:14:24;;;;;;;19.33;3.30;;;;;;;;;;4902291;29;20464;-44
2021/06/24 03:16:50;;;;;;;17.45;4.07;;;;;;;;;;4903676;29;20032;-44
2021/06/24 03:19:20;;;;;;;25.10;4.43;;;;;;;;;;4902144;29;20165;-44
2021/06/24 03:22:03;;;;;;;7.38;3.38;;;;;;;;;;4901987;29;20040;-44
2021/06/24 03:24:37;;;;;;;10.43;4.53;;;;;;;;;;4902046;29;20029;-44
2021/06/24 03:27:04;;;;;;;14.70;3.33;;;;;;;;;;4901945;29;20050;-45
2021/06/24 03:29:32;;;;;;;13.30;3.35;;;;;;;;;;4902168;29;20025;-43
2021/06/24 03:31:58;;;;;;;9.98;4.32;;;;;;;;;;4901835;29;20068;-44
2021/06/24 03:34:28;;;;;;;19.27;3.67;;;;;;;;;;4902087;29;20035;-44
2021/06/24 03:36:54;;;;;;;17.17;3.40;;;;;;;;;;4902308;29;20032;-44
2021/06/24 03:39:23;;;;;;;14.45;2.97;;;;;;;;;;4901748;29;20108;-44
2021/06/24 03:41:48;;;;;;;6.72;3.08;;;;;;;;;;4903287;29;20417;-43
2021/06/24 03:44:14;;;;;;;14.40;3.30;;;;;;;;;;4901836;29;20487;-44
2021/06/24 03:46:41;;;;;;;10.75;2.80;;;;;;;;;;4901911;29;20036;-44
2021/06/24 03:49:06;;;;;;;14.50;3.72;;;;;;;;;;4901839;29;20023;-43
2021/06/24 03:51:32;;;;;;;19.17;3.17;;;;;;;;;;4901765;29;20040;-43
2021/06/24 03:54:02;;;;;;;10.50;4.85;;;;;;;;;;4901876;29;20076;-44
2021/06/24 03:56:32;;;;;;;14.75;3.55;;;;;;;;;;4901843;29;20539;-44
2021/06/24 03:59:05;;;;;;;11.80;3.55;;;;;;;;;;4901770;29;20039;-45
2021/06/24 04:01:31;;;;;;;11.77;3.88;;;;;;;;;;4901796;29;20044;-44
2021/06/24 04:03:56;;;;;;;10.93;3.55;;;;;;;;;;4903319;29;20107;-44
2021/06/24 04:06:32;;;;;;;13.05;3.95;;;;;;;;;;4901696;29;20075;-44
2021/06/24 04:08:59;;;;;;;10.75;4.00;;;;;;;;;;4901700;29;20028;-44
2021/06/24 04:11:29;;;;;;;9.80;3.17;;;;;;;;;;4903275;29;20067;-43
2021/06/24 04:14:04;;;;;;;14.30;3.40;;;;;;;;;;4901489;29;20144;-43
2021/06/24 04:16:52;;;;;;;11.55;3.25;;;;;;;;;;4904962;29;20039;-44
2021/06/24 04:19:17;;;;;;;17.13;4.00;;;;;;;;;;4902903;29;20115;-43
2021/06/24 04:21:45;;;;;;;14.07;3.28;;;;;;;;;;4902800;29;20039;-44
2021/06/24 04:24:12;;;;;;;18.10;4.47;;;;;;;;;;4897834;29;20033;-44
2021/06/24 04:26:37;;;;;;;15.13;3.55;;;;;;;;;;4898284;29;20033;-45
2021/06/24 04:29:03;;;;;;;9.43;3.80;;;;;;;;;;4898428;29;20028;-44
2021/06/24 04:31:29;;;;;;;12.57;3.25;;;;;;;;;;4898636;29;20060;-44
2021/06/24 04:34:00;;;;;;;15.38;3.38;;;;;;;;;;4898508;29;20039;-46
2021/06/24 04:36:33;;;;;;;11.68;3.97;;;;;;;;;;4899816;29;20040;-44
2021/06/24 04:39:06;;;;;;;14.68;3.45;;;;;;;;;;4899411;29;20181;-44
2021/06/24 04:41:32;;;;;;;13.18;3.42;;;;;;;;;;4899862;29;20136;-44
2021/06/24 04:43:59;;;;;;;10.00;2.97;;;;;;;;;;4899581;29;20491;-44
2021/06/24 04:46:28;;;;;;;17.95;3.53;;;;;;;;;;4898285;29;20040;-44
2021/06/24 04:48:54;;;;;;;10.63;3.75;;;;;;;;;;4882728;29;20032;-44
2021/06/24 04:51:42;;;;;;;15.75;3.53;;;;;;;;;;4907040;29;20045;-44
2021/06/24 04:54:09;;;;;;;12.02;3.63;;;;;;;;;;4898146;29;20033;-44
2021/06/24 04:56:38;;;;;;;11.48;4.63;;;;;;;;;;4899633;29;20036;-44
2021/06/24 04:59:04;;;;;;;11.80;3.85;;;;;;;;;;4899324;29;20057;-44
2021/06/24 05:01:42;;;;;;;10.10;3.25;;;;;;;;;;4899320;29;20021;-44
2021/06/24 05:04:26;;;;;;;11.70;3.70;;;;;;;;;;4899514;29;20496;-44
2021/06/24 05:06:53;;;;;;;14.95;3.72;;;;;;;;;;4899389;29;20074;-44
2021/06/24 05:09:29;;;;;;;8.98;3.35;;;;;;;;;;4899385;29;20425;-44
2021/06/24 05:11:55;;;;;;;12.95;3.05;;;;;;;;;;4899126;29;20582;-44
2021/06/24 05:14:21;;;;;;;13.45;3.80;;;;;;;;;;4899051;29;20024;-44
2021/06/24 05:16:46;;;;;;;15.05;3.72;;;;;;;;;;4899007;29;20084;-44
2021/06/24 05:19:12;;;;;;;10.55;3.70;;;;;;;;;;4898909;29;20029;-44
2021/06/24 05:21:38;;;;;;;11.15;2.97;;;;;;;;;;4898997;29;20035;-44
2021/06/24 05:24:03;;;;;;;12.50;3.60;;;;;;;;;;4899021;29;20555;-44
2021/06/24 05:26:29;;;;;;;12.90;4.32;;;;;;;;;;4898774;29;20049;-45
2021/06/24 05:28:54;;;;;;;13.10;3.67;;;;;;;;;;4898881;29;20020;-44
2021/06/24 05:31:20;;;;;;;12.60;3.55;;;;;;;;;;4898572;29;20588;-44
2021/06/24 05:33:45;;;;;;;12.13;3.20;;;;;;;;;;4897524;29;20024;-44
2021/06/24 05:36:10;;;;;;;11.48;2.90;;;;;;;;;;4898279;29;20036;-44
2021/06/24 05:38:36;;;;;;;13.73;3.90;;;;;;;;;;4898587;29;20047;-44
2021/06/24 05:41:01;;;;;;;17.08;4.18;;;;;;;;;;4898388;29;20031;-44
2021/06/24 05:43:27;;;;;;;7.65;3.15;;;;;;;;;;4898539;29;20041;-44
2021/06/24 05:45:52;;;;;;;17.88;4.63;;;;;;;;;;4898710;29;20041;-43
2021/06/24 05:48:17;;;;;;;13.45;3.53;;;;;;;;;;4898592;29;20535;-44
2021/06/24 05:50:43;;;;;;;12.73;4.13;;;;;;;;;;4898390;29;20040;-44
2021/06/24 05:53:09;;;;;;;14.48;4.05;;;;;;;;;;4898231;29;20044;-43
2021/06/24 05:55:50;;;;;;;11.82;3.53;;;;;;;;;;4898616;29;20036;-44
2021/06/24 05:58:17;;;;;;;7.53;3.25;;;;;;;;;;4898284;29;20039;-43
2021/06/24 06:00:43;;;;;;;10.43;3.20;;;;;;;;;;4898116;29;20387;-44
2021/06/24 06:03:08;;;;;;;13.63;4.20;;;;;;;;;;4898149;29;20021;-43
2021/06/24 06:05:34;;;;;;;10.20;4.68;;;;;;;;;;4898101;29;20599;-44
2021/06/24 06:08:00;;;;;;;13.20;3.35;;;;;;;;;;4898100;29;20025;-43
2021/06/24 06:10:25;;;;;;;7.70;3.50;;;;;;;;;;4897943;29;20072;-43
2021/06/24 06:12:51;;;;;;;14.13;4.47;;;;;;;;;;4898035;29;20088;-43
2021/06/24 06:15:16;;;;;;;13.00;3.90;;;;;;;;;;4897858;29;20024;-43
2021/06/24 06:17:41;;;;;;;12.77;4.13;;;;;;;;;;4897954;29;20025;-44
2021/06/24 06:20:07;;;;;;;17.52;3.50;;;;;;;;;;4897780;29;20024;-44
2021/06/24 06:22:32;;;;;;;6.88;3.13;;;;;;;;;;4898123;29;20100;-44
2021/06/24 06:24:58;;;;;;;15.32;3.63;;;;;;;;;;4897728;29;20024;-44
2021/06/24 06:27:23;;;;;;;10.00;3.92;;;;;;;;;;4897730;29;20069;-44
2021/06/24 06:29:49;;;;;;;21.45;3.67;;;;;;;;;;4897673;29;20032;-44
2021/06/24 06:32:14;;;;;;;13.93;3.83;;;;;;;;;;4897453;29;20032;-44
2021/06/24 06:34:40;;;;;;;15.98;3.70;;;;;;;;;;4897681;29;20075;-44
2021/06/24 06:37:05;;;;;;;23.63;3.53;;;;;;;;;;4897521;29;20087;-43
2021/06/24 06:39:30;;;;;;;13.65;4.13;;;;;;;;;;4897420;29;20088;-45
2021/06/24 06:41:56;;;;;;;9.90;3.63;;;;;;;;;;4897801;29;20032;-44
2021/06/24 06:44:21;;;;;;;10.65;4.28;;;;;;;;;;4897597;29;20070;-44
2021/06/24 06:46:47;;;;;;;13.43;3.38;;;;;;;;;;4896891;29;20491;-45
2021/06/24 06:49:12;;;;;;;14.68;3.83;;;;;;;;;;4897342;29;20016;-45
2021/06/24 06:51:37;;;;;;;12.18;3.90;;;;;;;;;;4897304;29;20044;-46
2021/06/24 06:54:03;;;;;;;8.90;3.85;;;;;;;;;;4896085;29;20111;-44
2021/06/24 06:56:28;;;;;;;15.90;4.25;;;;;;;;;;4896108;29;20037;-44
2021/06/24 06:58:53;;;;;;;13.20;3.00;;;;;;;;;;4897396;29;20024;-44
2021/06/24 07:01:19;;;;;;;15.23;3.53;;;;;;;;;;4896059;29;20092;-44
2021/06/24 07:03:44;;;;;;;16.58;3.40;;;;;;;;;;4897192;29;20028;-44
2021/06/24 07:06:12;;;;;;;17.23;4.55;;;;;;;;;;4897392;29;20045;-44
2021/06/24 07:08:37;;;;;;;7.53;3.28;;;;;;;;;;4895997;29;20032;-44
2021/06/24 07:11:03;;;;;;;12.13;2.90;;;;;;;;;;4897017;29;20036;-45
2021/06/24 07:13:28;;;;;;;10.80;3.10;;;;;;;;;;4897501;29;20017;-44
2021/06/24 07:15:56;;;;;;;15.77;3.63;;;;;;;;;;4897107;29;20033;-44
2021/06/24 07:18:22;;;;;;;18.00;3.78;;;;;;;;;;4897107;29;20107;-44
2021/06/24 07:20:47;;;;;;;13.27;3.38;;;;;;;;;;4897148;29;20056;-44
2021/06/24 07:23:12;;;;;;;15.38;3.83;;;;;;;;;;4897097;29;20025;-43
2021/06/24 07:25:38;;;;;;;9.63;2.97;;;;;;;;;;4895749;29;20045;-44
2021/06/24 07:28:03;;;;;;;8.00;3.20;;;;;;;;;;4896994;29;20368;-45
2021/06/24 07:30:29;;;;;;;16.15;4.20;;;;;;;;;;4897302;29;20144;-44
2021/06/24 07:32:54;;;;;;;8.38;3.15;;;;;;;;;;4896991;29;20065;-44
2021/06/24 07:35:19;;;;;;;18.23;4.72;;;;;;;;;;4897187;29;20029;-44
2021/06/24 07:37:45;;;;;;;9.55;3.35;;;;;;;;;;4897132;29;20051;-44
2021/06/24 07:40:11;;;;;;;13.70;3.47;;;;;;;;;;4896795;29;20520;-44
2021/06/24 07:42:36;;;;;;;14.05;3.90;;;;;;;;;;4897267;29;20051;-44
2021/06/24 07:45:02;;;;;;;24.52;4.18;;;;;;;;;;4896959;29;20037;-45
2021/06/24 07:47:27;;;;;;;9.00;3.30;;;;;;;;;;4896970;29;20024;-44
2021/06/24 07:49:53;;;;;;;7.30;3.80;;;;;;;;;;4896923;29;20061;-44
2021/06/24 07:52:18;;;;;;;14.93;4.75;;;;;;;;;;4896781;29;20024;-43
2021/06/24 07:54:43;;;;;;;20.63;4.05;;;;;;;;;;4896779;29;20044;-44
2021/06/24 07:57:09;;;;;;;15.48;3.50;;;;;;;;;;4897323;29;20029;-45
2021/06/24 07:59:34;;;;;;;17.67;4.15;;;;;;;;;;4900403;29;20048;-44
2021/06/24 08:02:00;;;;;;;13.95;3.85;;;;;;;;;;4900257;29;20024;-44
2021/06/24 08:04:26;;;;;;;7.63;3.13;;;;;;;;;;4900285;29;20028;-44
2021/06/24 08:06:52;;;;;;;17.75;3.58;;;;;;;;;;4900483;29;20511;-44
2021/06/24 08:09:17;;;;;;;7.80;3.03;;;;;;;;;;4900369;29;20111;-44
2021/06/24 08:11:43;;;;;;;10.98;3.42;;;;;;;;;;4900452;29;20028;-43
2021/06/24 08:14:08;;;;;;;20.98;3.30;;;;;;;;;;4900064;29;20519;-44
2021/06/24 08:16:35;;;;;;;22.70;4.32;;;;;;;;;;4900137;29;20031;-44
2021/06/24 08:19:01;;;;;;;12.25;4.10;;;;;;;;;;4900315;29;20025;-44
2021/06/24 08:21:26;;;;;;;15.18;2.80;;;;;;;;;;4900015;29;20025;-43
2021/06/24 08:23:51;;;;;;;22.58;3.70;;;;;;;;;;4899941;29;20123;-44
2021/06/24 08:26:18;;;;;;;21.73;3.97;;;;;;;;;;4900006;29;20057;-44
2021/06/24 08:28:43;;;;;;;12.25;3.95;;;;;;;;;;4900189;29;20084;-44
2021/06/24 08:31:09;;;;;;;16.20;2.63;;;;;;;;;;4899945;29;20025;-44
2021/06/24 08:33:34;;;;;;;9.82;2.45;;;;;;;;;;4899902;29;20091;-44
2021/06/24 08:36:00;;;;;;;17.15;3.58;;;;;;;;;;4899792;29;20047;-44
2021/06/24 08:38:25;;;;;;;11.85;3.15;;;;;;;;;;4899547;29;20056;-46
2021/06/24 08:40:51;;;;;;;17.48;4.30;;;;;;;;;;4899731;29;20398;-44
2021/06/24 08:43:16;;;;;;;20.90;3.55;;;;;;;;;;4899797;29;20029;-44
2021/06/24 08:45:42;;;;;;;14.32;3.28;;;;;;;;;;4899638;29;20365;-44
2021/06/24 08:48:13;;;;;;;25.83;3.88;;;;;;;;;;4898230;29;20080;-44
2021/06/24 08:50:41;;;;;;;26.02;4.45;;;;;;;;;;4899368;29;20550;-44
2021/06/24 08:53:06;;;;;;;27.10;3.90;;;;;;;;;;4899459;29;20464;-44
2021/06/24 08:55:43;;;;;;;26.17;4.05;;;;;;;;;;4899443;29;20033;-43
2021/06/24 08:58:08;;;;;;;14.20;3.15;;;;;;;;;;4899625;29;20033;-44
2021/06/24 09:00:34;;;;;;;17.65;4.22;;;;;;;;;;4899263;29;20024;-44
2021/06/24 09:03:16;;;;;;;19.75;4.03;;;;;;;;;;4899573;29;20032;-44
2021/06/24 09:05:55;;;;;;;17.00;2.72;;;;;;;;;;4899436;29;20036;-44
2021/06/24 09:08:33;;;;;;;10.35;3.60;;;;;;;;;;4899203;29;20041;-44
2021/06/24 09:11:17;;;;;;;15.23;3.47;;;;;;;;;;4898804;29;20028;-44
2021/06/24 09:13:58;;;;;;;27.00;4.32;;;;;;;;;;4899103;29;20024;-44
2021/06/24 09:16:25;;;;;;;20.67;3.58;;;;;;;;;;4899077;29;20065;-44
2021/06/24 09:18:51;;;;;;;21.63;4.03;;;;;;;;;;4897684;29;20024;-44
2021/06/24 09:21:18;;;;;;;15.18;4.20;;;;;;;;;;4898845;29;20039;-44
2021/06/24 09:23:43;;;;;;;22.90;4.05;;;;;;;;;;4899052;29;20028;-44
2021/06/24 09:26:14;;;;;;;22.52;4.75;;;;;;;;;;4898887;29;20071;-43
2021/06/24 09:28:41;;;;;;;25.48;2.80;;;;;;;;;;4898898;29;20033;-43
2021/06/24 09:31:25;;;;;;;24.70;4.07;;;;;;;;;;4898603;29;20057;-44
2021/06/24 09:33:50;;;;;;;16.02;4.47;;;;;;;;;;4898744;29;20198;-44
2021/06/24 09:36:32;;;;;;;17.73;3.97;;;;;;;;;;4898896;29;20120;-44
2021/06/24 09:38:57;;;;;;;29.08;4.78;;;;;;;;;;4898630;29;20060;-44
2021/06/24 09:41:23;;;;;;;17.95;4.32;;;;;;;;;;4898464;29;20035;-44
2021/06/24 09:43:48;;;;;;;20.52;4.28;;;;;;;;;;4898626;29;20107;-44
2021/06/24 09:46:15;;;;;;;9.35;2.83;;;;;;;;;;4896074;29;20039;-45
2021/06/24 09:48:43;;;;;;;22.02;3.55;;;;;;;;;;4877847;29;20029;-44
2021/06/24 09:51:16;;;;;;;17.48;4.45;;;;;;;;;;4879230;29;20025;-44
2021/06/24 09:53:41;;;;;;;;;;;;;;;;;;4878925;29;20081;-44
2021/06/24 09:56:22;;;;;;;19.80;3.80;;;;;;;;;;4893860;29;20090;-44
2021/06/24 09:58:48;;;;;;;20.60;4.35;;;;;;;;;;4879664;29;20051;-44
2021/06/24 10:01:27;;;;;;;18.20;4.00;;;;;;;;;;4879486;29;20025;-44
2021/06/24 10:03:53;;;;;;;16.00;4.40;;;;;;;;;;4879520;29;20054;-44
2021/06/24 10:06:19;;;;;;;13.52;4.95;;;;;;;;;;4879361;29;20029;-44
2021/06/24 10:08:44;;;;;;;17.02;4.75;;;;;;;;;;4879340;29;20044;-44
2021/06/24 10:11:09;;;;;;;6.95;3.58;;;;;;;;;;4879374;29;20028;-44
2021/06/24 10:13:35;;;;;;;17.98;5.00;;;;;;;;;;4893773;29;20033;-44
2021/06/24 10:16:00;;;;;;;17.08;4.45;;;;;;;;;;4879156;29;20388;-43
2021/06/24 10:18:26;;;;;;;14.40;3.85;;;;;;;;;;4879241;29;20021;-44
2021/06/24 10:20:53;;;;;;;20.63;4.47;;;;;;;;;;4892758;29;20064;-44
2021/06/24 10:23:21;;;;;;;24.15;4.70;;;;;;;;;;4879228;29;20483;-44
2021/06/24 10:25:48;;;;;;;21.52;5.13;;;;;;;;;;4879166;29;20071;-44
2021/06/24 10:28:16;;;;;;;20.02;4.28;;;;;;;;;;4878926;29;20503;-43
2021/06/24 10:30:42;;;;;;;20.23;5.72;;;;;;;;;;4879305;29;20048;-44
2021/06/24 10:33:17;;;;;;;18.50;4.75;;;;;;;;;;4878900;29;20025;-44
2021/06/24 10:35:52;;;;;;;16.92;5.18;;;;;;;;;;4879096;29;20440;-44
2021/06/24 10:38:18;;;;;;;16.92;4.53;;;;;;;;;;4878715;29;20051;-44
2021/06/24 10:41:04;;;;;;;16.35;4.43;;;;;;;;;;4879033;29;20101;-43
2021/06/24 10:43:49;;;;;;;17.45;5.68;;;;;;;;;;4878608;29;20481;-46
2021/06/24 10:46:16;;;;;;;21.67;4.75;;;;;;;;;;4878697;29;20118;-43
2021/06/24 10:48:42;;;;;;;13.98;3.97;;;;;;;;;;4893245;29;20120;-43
2021/06/24 10:51:08;;;;;;;17.17;4.85;;;;;;;;;;4878650;29;20512;-43
2021/06/24 10:53:37;;;;;;;31.88;6.70;;;;;;;;;;4879265;29;20025;-43
2021/06/24 10:56:22;;;;;;;19.08;4.82;;;;;;;;;;4878817;29;20029;-44
2021/06/24 10:58:48;;;;;;;18.17;5.72;;;;;;;;;;4878347;29;20041;-45
2021/06/24 11:01:13;;;;;;;21.95;5.15;;;;;;;;;;4878618;29;20025;-44
2021/06/24 11:03:41;;;;;;;26.20;5.50;;;;;;;;;;4878859;29;20025;-44
2021/06/24 11:06:11;;;;;;;20.90;5.28;;;;;;;;;;4877232;29;20032;-45
2021/06/24 11:08:36;;;;;;;18.60;5.28;;;;;;;;;;4878609;29;20505;-44
2021/06/24 11:11:09;;;;;;;22.85;4.88;;;;;;;;;;4878802;29;20056;-44
2021/06/24 11:13:35;;;;;;;20.38;5.13;;;;;;;;;;4878529;29;20576;-44
2021/06/24 11:16:01;;;;;;;20.02;5.13;;;;;;;;;;4878460;29;20108;-44
2021/06/24 11:18:38;;;;;;;15.15;4.15;;;;;;;;;;4878477;29;20465;-43
2021/06/24 11:21:33;;;;;;;18.75;6.70;;;;;;;;;;4878385;29;20075;-43
2021/06/24 11:24:00;;;;;;;29.15;5.53;;;;;;;;;;4865321;29;20048;-43
2021/06/24 11:26:25;;;;;;;14.50;4.88;;;;;;;;;;4878371;29;20111;-43
2021/06/24 11:28:55;;;;;;;25.13;5.10;;;;;;;;;;4878435;29;20112;-44
2021/06/24 11:31:56;;;;;;;28.10;4.30;;;;;;;;;;4878291;29;20044;-44
2021/06/24 11:37:07;;;;;;;29.20;5.82;;;;;;;;;;4880860;29;20150;-43
2021/06/24 11:39:38;;;;;;;15.23;4.95;;;;;;;;;;4881971;29;20053;-43
2021/06/24 11:42:08;;;;;;;23.85;5.82;;;;;;;;;;4882004;29;20101;-43
2021/06/24 11:44:36;;;;;;;24.48;4.28;;;;;;;;;;4880835;29;20032;-43
2021/06/24 11:47:08;;;;;;;24.33;6.20;;;;;;;;;;4881883;29;20041;-43
2021/06/24 12:00:56;;;;;;;16.40;4.45;;;;;;;;;;4881710;29;20116;-43
2021/06/24 12:03:22;;;;;;;19.08;4.93;;;;;;;;;;4881520;29;20037;-43
2021/06/24 12:05:53;;;;;;;16.60;3.85;;;;;;;;;;4881577;29;20036;-43
2021/06/24 12:08:23;;;;;;;29.45;3.88;;;;;;;;;;4881790;29;20057;-43
2021/06/24 12:10:49;;;;;;;11.52;4.45;;;;;;;;;;4881458;29;20020;-43
2021/06/24 12:13:28;;;;;;;19.10;4.00;;;;;;;;;;4881457;29;20057;-43
2021/06/24 12:15:56;;;;;;;14.73;3.67;;;;;;;;;;4881422;29;20040;-43
2021/06/24 12:18:31;;;;;;;22.85;3.95;;;;;;;;;;4881312;29;20069;-43
2021/06/24 12:21:01;;;;;;;19.33;3.60;;;;;;;;;;4881566;29;20047;-43
2021/06/24 12:23:26;;;;;;;18.38;4.38;;;;;;;;;;4881326;29;20021;-43
2021/06/24 12:25:52;;;;;;;27.30;4.07;;;;;;;;;;4881098;29;20045;-43
2021/06/24 12:28:17;;;;;;;22.67;5.07;;;;;;;;;;4881153;29;20072;-45
2021/06/24 12:30:44;;;;;;;14.68;4.47;;;;;;;;;;4881495;29;20036;-43
2021/06/24 12:33:11;;;;;;;21.80;3.55;;;;;;;;;;4881036;29;20024;-43
2021/06/24 12:35:37;;;;;;;23.17;4.70;;;;;;;;;;4881173;29;20033;-43
2021/06/24 12:38:06;;;;;;;14.90;3.80;;;;;;;;;;4881017;29;20097;-43
2021/06/24 12:40:42;;;;;;;22.98;4.28;;;;;;;;;;4879734;29;20491;-43
2021/06/24 12:43:09;;;;;;;16.13;3.80;;;;;;;;;;4880883;29;20037;-43
2021/06/24 12:45:37;;;;;;;18.20;3.92;;;;;;;;;;4880052;29;20047;-43
2021/06/24 12:48:04;;;;;;;19.50;4.45;;;;;;;;;;4880901;29;20035;-43
2021/06/24 12:50:33;;;;;;;14.25;3.70;;;;;;;;;;4880696;29;20047;-43
2021/06/24 12:53:00;;;;;;;28.27;4.28;;;;;;;;;;4880860;29;20032;-42
2021/06/24 12:55:32;;;;;;;16.77;4.00;;;;;;;;;;4895172;29;20072;-43
2021/06/24 12:58:01;;;;;;;17.05;3.75;;;;;;;;;;4880773;29;20036;-43
2021/06/24 13:00:27;;;;;;;12.07;3.90;;;;;;;;;;4880771;29;20029;-43
2021/06/24 13:02:52;;;;;;;15.30;1.75;;;;;;;;;;4880656;29;20377;-43
2021/06/24 13:05:24;;;;;;;11.32;3.75;;;;;;;;;;4880735;29;20110;-43
2021/06/24 13:08:01;;;;;;;17.88;3.30;;;;;;;;;;4880529;29;20044;-43
2021/06/24 13:10:27;;;;;;;17.88;3.65;;;;;;;;;;4880654;29;20093;-43
2021/06/24 13:12:52;;;;;;;13.85;3.15;;;;;;;;;;4880460;29;20017;-43
2021/06/24 13:15:31;;;;;;;19.52;4.82;;;;;;;;;;4880545;29;20081;-43
2021/06/24 13:17:56;;;;;;;9.15;3.45;;;;;;;;;;4880304;29;20033;-43
2021/06/24 13:20:22;;;;;;;17.63;3.75;;;;;;;;;;4880588;29;20483;-43
2021/06/24 13:22:47;;;;;;;17.88;4.00;;;;;;;;;;4880272;29;20073;-44
2021/06/24 13:25:20;;;;;;;18.08;3.28;;;;;;;;;;4880141;29;20028;-43
2021/06/24 13:27:45;;;;;;;;;;;;;;;;;;4879333;29;20404;-43
2021/06/24 13:30:15;;;;;;;9.88;4.13;;;;;;;;;;4880058;29;19908;-43
2021/06/24 13:32:51;;;;;;;17.08;4.72;;;;;;;;;;4880235;29;20116;-43
2021/06/24 13:35:21;;;;;;;19.83;4.22;;;;;;;;;;4879909;29;20119;-43
2021/06/24 13:37:57;;;;;;;18.50;4.07;;;;;;;;;;4878671;29;20115;-43
2021/06/24 13:40:24;;;;;;;17.85;3.45;;;;;;;;;;4879858;29;20065;-43
2021/06/24 13:42:54;;;;;;;21.27;3.22;;;;;;;;;;4879977;29;20029;-43
2021/06/24 13:45:20;;;;;;;19.17;3.58;;;;;;;;;;4879680;29;20033;-43
2021/06/24 13:47:45;;;;;;;18.50;4.85;;;;;;;;;;4879958;29;20028;-43
2021/06/24 13:50:11;;;;;;;18.35;4.18;;;;;;;;;;4879539;29;20393;-43
2021/06/24 13:52:37;;;;;;;14.50;3.95;;;;;;;;;;4879820;29;20045;-43
2021/06/24 13:55:03;;;;;;;19.10;3.72;;;;;;;;;;4879560;29;20040;-43
2021/06/24 13:57:29;;;;;;;23.65;4.07;;;;;;;;;;4879637;29;20032;-43
2021/06/24 13:59:54;;;;;;;23.70;4.00;;;;;;;;;;4879662;29;20036;-43
2021/06/24 14:02:20;;;;;;;7.60;3.45;;;;;;;;;;4894193;29;20035;-43
2021/06/24 14:04:45;;;;;;;18.65;3.63;;;;;;;;;;4877713;29;20029;-43
2021/06/24 14:07:11;;;;;;;16.30;3.08;;;;;;;;;;4863904;29;20104;-43
2021/06/24 14:09:37;;;;;;;16.48;4.00;;;;;;;;;;4860871;29;20109;-43
2021/06/24 14:12:02;;;;;;;17.65;3.58;;;;;;;;;;4860795;29;20140;-43
2021/06/24 14:14:28;;;;;;;12.38;3.03;;;;;;;;;;4888351;29;20031;-43
2021/06/24 14:16:54;;;;;;;17.13;3.60;;;;;;;;;;4897970;29;20088;-43
2021/06/24 14:19:20;;;;;;;14.20;3.17;;;;;;;;;;4897586;29;20031;-43
2021/06/24 14:21:46;;;;;;;9.43;2.42;;;;;;;;;;4896708;29;20357;-43
2021/06/24 14:24:12;;;;;;;13.07;3.45;;;;;;;;;;4894784;29;20033;-43
2021/06/24 14:26:37;;;;;;;13.82;2.55;;;;;;;;;;4867067;29;20045;-43
2021/06/24 14:29:04;;;;;;;11.95;2.45;;;;;;;;;;4878361;29;20033;-43
2021/06/24 14:31:29;;;;;;;11.57;3.08;;;;;;;;;;4886407;29;20468;-44
2021/06/24 14:33:55;;;;;;;24.67;3.75;;;;;;;;;;4863494;29;20043;-43
2021/06/24 14:36:21;;;;;;;24.45;3.03;;;;;;;;;;4867954;29;20121;-44
2021/06/24 14:38:46;;;;;;;11.18;2.72;;;;;;;;;;4882257;29;20377;-44
2021/06/24 14:41:13;;;;;;;15.00;3.40;;;;;;;;;;4882265;29;20032;-44
2021/06/24 14:43:38;;;;;;;21.67;4.00;;;;;;;;;;4886920;29;20111;-43
2021/06/24 14:46:06;;;;;;;11.02;3.35;;;;;;;;;;4897186;29;20037;-43
2021/06/24 14:48:32;;;;;;;25.65;3.20;;;;;;;;;;4896060;29;20413;-44
2021/06/24 14:50:58;;;;;;;20.02;3.90;;;;;;;;;;4897690;29;20485;-43
2021/06/24 14:53:23;;;;;;;8.07;2.20;;;;;;;;;;4897314;29;20056;-43